createdAt,value
2022-09-26T00:00:20.650Z,0.50
2022-09-26T00:05:26.351Z,0.40
2022-09-26T00:10:30.172Z,0.33
2022-09-26T00:15:33.704Z,0.40
2022-09-26T00:20:39.305Z,0.60
2022-09-26T00:25:46.816Z,0.30
2022-09-26T00:30:50.487Z,0.50
2022-09-26T00:35:56.630Z,0.50
2022-09-26T00:41:00.795Z,0.47
2022-09-26T00:46:14.486Z,0.47
2022-09-26T00:51:19.632Z,0.40
2022-09-26T00:56:27.742Z,0.30
2022-09-26T01:01:31.610Z,0.50
2022-09-26T01:06:37.108Z,0.57
2022-09-26T01:11:42.821Z,0.50
2022-09-26T01:16:48.749Z,0.50
2022-09-26T01:22:21.785Z,0.40
2022-09-26T01:27:45.091Z,0.37
2022-09-26T01:33:25.712Z,0.30
2022-09-26T01:38:45.533Z,0.37
2022-09-26T01:43:55.904Z,0.30
2022-09-26T01:49:09.783Z,0.30
2022-09-26T01:54:18.583Z,0.50
2022-09-26T01:59:26.351Z,0.40
2022-09-26T02:04:36.770Z,0.50
2022-09-26T02:09:46.166Z,0.40
2022-09-26T02:14:51.995Z,0.40
2022-09-26T02:19:59.868Z,0.43
2022-09-26T02:25:05.054Z,0.43
2022-09-26T02:30:10.304Z,0.60
2022-09-26T02:35:30.251Z,0.40
2022-09-26T02:40:41.806Z,0.33
2022-09-26T02:45:48.378Z,0.77
2022-09-26T02:51:09.017Z,0.60
2022-09-26T02:56:21.927Z,0.50
2022-09-26T03:01:32.378Z,0.50
2022-09-26T03:06:42.064Z,0.60
2022-09-26T03:11:47.140Z,0.43
2022-09-26T03:16:52.371Z,0.60
2022-09-26T03:21:58.766Z,0.60
2022-09-26T03:27:05.100Z,0.53
2022-09-26T03:32:10.834Z,0.50
2022-09-26T03:37:17.019Z,0.57
2022-09-26T03:42:20.600Z,0.60
2022-09-26T03:47:24.251Z,0.60
2022-09-26T03:52:31.455Z,0.80
2022-09-26T03:57:35.026Z,0.70
2022-09-26T04:02:51.226Z,0.60
2022-09-26T04:08:14.096Z,0.70
2022-09-26T04:13:46.534Z,0.57
2022-09-26T04:18:43.358Z,0.50
2022-09-26T04:23:49.222Z,0.60
2022-09-26T04:28:57.472Z,0.70
2022-09-26T04:34:15.865Z,0.60
2022-09-26T04:39:21.050Z,0.70
2022-09-26T04:44:25.161Z,0.60
2022-09-26T04:49:29.217Z,0.40
2022-09-26T04:54:37.344Z,0.73
2022-09-26T04:59:40.845Z,0.60
2022-09-26T05:04:46.696Z,0.50
2022-09-26T05:09:53.066Z,0.70
2022-09-26T05:14:57.968Z,0.80
2022-09-26T05:20:01.532Z,0.60
2022-09-26T05:25:42.966Z,0.77
2022-09-26T05:30:46.496Z,1.00
2022-09-26T05:35:54.046Z,0.93
2022-09-26T05:40:59.320Z,0.77
2022-09-26T05:46:05.971Z,0.80
2022-09-26T05:51:15.780Z,0.90
2022-09-26T05:56:22.083Z,0.90
2022-09-26T06:01:46.722Z,1.00
2022-09-26T06:07:03.174Z,1.37
2022-09-26T06:12:08.134Z,1.20
2022-09-26T06:17:12.057Z,1.10
2022-09-26T06:22:15.587Z,1.20
2022-09-26T06:27:20.884Z,0.90
2022-09-26T06:32:24.584Z,1.20
2022-09-26T06:38:04.901Z,0.87
2022-09-26T06:43:09.891Z,1.60
2022-09-26T06:48:39.609Z,1.40
2022-09-26T06:53:54.716Z,1.30
2022-09-26T06:59:04.460Z,0.83
2022-09-26T07:04:15.716Z,1.33
2022-09-26T07:09:41.283Z,1.30
2022-09-26T07:15:04.919Z,1.20
2022-09-26T07:20:11.759Z,1.30
2022-09-26T07:25:34.005Z,1.43
2022-09-26T07:30:40.807Z,1.50
2022-09-26T07:36:05.453Z,1.57
2022-09-26T07:41:10.836Z,1.30
2022-09-26T07:46:34.628Z,1.50
2022-09-26T07:51:39.476Z,1.20
2022-09-26T07:56:47.313Z,1.10
2022-09-26T08:02:24.548Z,0.80
2022-09-26T08:07:31.026Z,0.70
2022-09-26T08:12:46.269Z,0.70
2022-09-26T08:18:17.291Z,0.50
2022-09-26T08:23:21.146Z,0.63
2022-09-26T08:28:44.564Z,0.70
2022-09-26T08:33:50.341Z,0.50
2022-09-26T08:38:53.921Z,0.80
2022-09-26T08:44:41.768Z,0.60
2022-09-26T08:50:17.294Z,0.40
2022-09-26T08:55:24.940Z,0.50
2022-09-26T09:00:31.949Z,0.30
2022-09-26T09:05:45.245Z,0.30
2022-09-26T09:10:58.727Z,0.30
2022-09-26T09:16:28.571Z,0.27
2022-09-26T09:21:54.599Z,0.30
2022-09-26T09:32:49.850Z,0.30
2022-09-26T09:38:20.660Z,0.70
2022-09-26T09:43:41.937Z,0.50
2022-09-26T09:48:48.518Z,0.50
2022-09-26T09:54:16.382Z,0.40
2022-09-26T09:59:40.651Z,0.40
2022-09-26T10:04:52.789Z,0.50
2022-09-26T10:09:57.830Z,0.50
2022-09-26T10:15:22.298Z,0.50
2022-09-26T10:20:54.927Z,0.73
2022-09-26T10:26:03.482Z,0.50
2022-09-26T10:31:10.584Z,0.60
2022-09-26T10:36:38.874Z,0.90
2022-09-26T10:41:47.147Z,0.60
2022-09-26T10:46:53.359Z,0.50
2022-09-26T10:52:20.772Z,0.50
2022-09-26T10:57:29.448Z,0.50
2022-09-26T11:02:35.847Z,0.80
2022-09-26T11:07:42.730Z,0.80
2022-09-26T11:13:21.584Z,0.90
2022-09-26T11:18:39.587Z,0.97
2022-09-26T11:23:47.942Z,0.90
2022-09-26T11:29:02.017Z,1.13
2022-09-26T11:34:16.953Z,0.80
2022-09-26T11:39:38.408Z,1.00
2022-09-26T11:44:56.649Z,0.67
2022-09-26T11:50:39.635Z,0.80
2022-09-26T11:56:07.095Z,1.00
2022-09-26T12:01:20.977Z,0.80
2022-09-26T12:06:33.324Z,0.80
2022-09-26T12:11:43.474Z,0.60
2022-09-26T12:16:55.039Z,0.90
2022-09-26T12:22:23.459Z,0.63
2022-09-26T12:27:35.112Z,0.43
2022-09-26T12:32:57.562Z,0.70
2022-09-26T12:38:16.049Z,0.50
2022-09-26T12:43:55.564Z,0.60
2022-09-26T12:49:19.913Z,0.70
2022-09-26T12:54:51.922Z,0.63
2022-09-26T13:00:12.554Z,0.40
2022-09-26T13:05:44.900Z,0.50
2022-09-26T13:11:02.528Z,0.67
2022-09-26T13:16:18.795Z,0.63
2022-09-26T13:21:30.075Z,0.30
2022-09-26T13:26:38.325Z,0.30
2022-09-26T13:31:44.773Z,0.30
2022-09-26T13:36:50.868Z,0.30
2022-09-26T13:42:01.837Z,0.47
2022-09-26T13:47:19.674Z,0.50
2022-09-26T13:52:39.776Z,0.37
2022-09-26T13:57:49.742Z,0.47
2022-09-26T14:03:28.116Z,0.40
2022-09-26T14:08:53.208Z,0.50
2022-09-26T14:14:36.169Z,0.83
2022-09-26T14:19:43.402Z,0.70
2022-09-26T14:24:49.237Z,0.53
2022-09-26T14:29:54.840Z,0.50
2022-09-26T14:35:00.254Z,0.60
2022-09-26T14:40:18.278Z,0.60
2022-09-26T14:45:26.197Z,0.70
2022-09-26T14:50:35.533Z,0.87
2022-09-26T14:55:55.097Z,0.70
2022-09-26T15:01:02.539Z,0.60
2022-09-26T15:06:08.865Z,0.60
2022-09-26T15:11:29.047Z,0.60
2022-09-26T15:16:38.866Z,0.70
2022-09-26T15:21:44.988Z,0.80
2022-09-26T15:26:51.787Z,0.60
2022-09-26T15:31:57.597Z,0.73
2022-09-26T15:37:02.413Z,0.73
2022-09-26T15:42:48.949Z,0.70
2022-09-26T15:47:52.717Z,0.93
2022-09-26T15:53:01.243Z,0.80
2022-09-26T15:58:07.890Z,1.00
2022-09-26T16:03:30.243Z,0.77
2022-09-26T16:08:41.304Z,0.73
2022-09-26T16:13:51.071Z,0.90
2022-09-26T16:18:57.098Z,0.77
2022-09-26T16:24:22.212Z,0.73
2022-09-26T16:29:34.933Z,0.80
2022-09-26T16:34:38.729Z,0.77
2022-09-26T16:39:43.726Z,1.00
2022-09-26T16:44:54.766Z,0.87
2022-09-26T16:50:09.462Z,1.20
2022-09-26T16:55:13.557Z,0.83
2022-09-26T17:00:38.844Z,1.03
2022-09-26T17:05:42.518Z,1.00
2022-09-26T17:10:46.736Z,1.07
2022-09-26T17:15:54.608Z,1.30
2022-09-26T17:20:59.479Z,1.17
2022-09-26T17:26:06.076Z,1.03
2022-09-26T17:31:19.461Z,0.90
2022-09-26T17:36:25.529Z,1.23
2022-09-26T17:41:31.244Z,4.50
2022-09-26T17:46:38.204Z,1.93
2022-09-26T17:51:42.693Z,1.37
2022-09-26T17:56:46.309Z,1.10
2022-09-26T18:01:54.037Z,1.17
2022-09-26T18:07:04.318Z,1.10
2022-09-26T18:12:10.836Z,1.00
2022-09-26T18:17:17.807Z,1.10
2022-09-26T18:22:27.905Z,1.10
2022-09-26T18:27:31.868Z,1.03
2022-09-26T18:32:41.554Z,1.00
2022-09-26T18:37:46.016Z,1.23
2022-09-26T18:42:49.828Z,1.10
2022-09-26T18:47:55.420Z,1.03
2022-09-26T18:52:59.049Z,0.90
2022-09-26T18:58:20.160Z,1.07
2022-09-26T19:03:27.989Z,0.90
2022-09-26T19:08:35.112Z,1.00
2022-09-26T19:13:38.676Z,1.13
2022-09-26T19:18:43.809Z,0.80
2022-09-26T19:23:49.395Z,0.70
2022-09-26T19:28:53.640Z,0.93
2022-09-26T19:33:58.927Z,0.70
2022-09-26T19:39:02.533Z,0.40
2022-09-26T19:44:07.254Z,0.60
2022-09-26T19:49:18.439Z,0.30
2022-09-26T19:54:22.083Z,0.33
2022-09-26T19:59:27.686Z,0.43
2022-09-26T20:04:32.780Z,0.40
2022-09-26T20:09:36.351Z,0.30
2022-09-26T20:14:39.915Z,0.30
2022-09-26T20:19:46.834Z,0.30
2022-09-26T20:24:54.864Z,0.30
2022-09-26T20:30:15.941Z,0.20
2022-09-26T20:35:20.989Z,0.37
2022-09-26T20:40:24.757Z,0.30
2022-09-26T20:45:31.753Z,0.30
2022-09-26T20:50:38.451Z,0.53
2022-09-26T20:55:44.256Z,0.40
2022-09-26T21:00:48.439Z,0.40
2022-09-26T21:05:53.414Z,0.47
2022-09-26T21:10:57.790Z,0.43
2022-09-26T21:16:01.576Z,0.40
2022-09-26T21:21:08.339Z,0.43
2022-09-26T21:26:23.527Z,0.20
2022-09-26T21:31:29.373Z,0.40
2022-09-26T21:36:38.442Z,0.50
2022-09-26T21:41:42.000Z,0.50
2022-09-26T21:46:45.808Z,0.40
2022-09-26T21:51:53.262Z,0.40
2022-09-26T21:57:02.191Z,0.60
2022-09-26T22:02:05.924Z,0.50
2022-09-26T22:07:10.939Z,0.50
2022-09-26T22:12:14.526Z,0.40
2022-09-26T22:17:18.451Z,0.30
2022-09-26T22:22:23.466Z,0.50
2022-09-26T22:27:27.241Z,0.70
2022-09-26T22:32:30.812Z,0.80
2022-09-26T22:37:35.999Z,0.60
2022-09-26T22:42:39.594Z,0.60
2022-09-26T22:47:43.172Z,0.60
2022-09-26T22:52:48.387Z,0.50
2022-09-26T22:57:52.036Z,0.47
2022-09-26T23:02:55.672Z,0.50
2022-09-26T23:08:00.777Z,0.30
2022-09-26T23:13:04.659Z,0.40
2022-09-26T23:18:08.232Z,0.40
2022-09-26T23:23:14.415Z,0.40
2022-09-26T23:28:18.638Z,0.60
2022-09-26T23:33:22.214Z,0.33
2022-09-26T23:38:27.302Z,0.50
2022-09-26T23:43:30.880Z,0.53
2022-09-26T23:48:35.204Z,0.67
2022-09-26T23:53:40.226Z,0.50
2022-09-26T23:58:44.163Z,0.40
